createdAt,value
2018-03-19T00:00:01.767Z,924.27
2018-03-19T00:00:14.744Z,924.24
2018-03-19T00:00:27.974Z,924.28
2018-03-19T00:00:44.706Z,924.3
2018-03-19T00:00:57.252Z,924.3
2018-03-19T00:01:09.344Z,924.31
2018-03-19T00:01:22.403Z,924.33
2018-03-19T00:01:34.934Z,924.32
2018-03-19T00:01:47.438Z,924.35
2018-03-19T00:02:00.425Z,924.33
2018-03-19T00:02:12.937Z,924.36
2018-03-19T00:02:25.927Z,924.34
2018-03-19T00:02:38.892Z,924.36
2018-03-19T00:02:51.864Z,924.33
2018-03-19T00:03:04.795Z,924.35
2018-03-19T00:03:17.338Z,924.34
2018-03-19T00:03:30.329Z,924.38
2018-03-19T00:03:43.296Z,924.34
2018-03-19T00:03:55.354Z,924.38
2018-03-19T00:04:08.336Z,924.37
2018-03-19T00:04:21.307Z,924.35
2018-03-19T00:04:34.308Z,924.37
2018-03-19T00:04:47.367Z,924.36
2018-03-19T00:04:59.905Z,924.34
2018-03-19T00:05:12.526Z,924.36
2018-03-19T00:05:25.097Z,924.36
2018-03-19T00:05:37.667Z,924.39
2018-03-19T00:05:50.654Z,924.36
2018-03-19T00:06:02.652Z,924.37
2018-03-19T00:06:15.168Z,924.38
2018-03-19T00:06:28.130Z,924.36
2018-03-19T00:06:40.609Z,924.39
2018-03-19T00:06:53.127Z,924.37
2018-03-19T00:07:06.122Z,924.4
2018-03-19T00:07:18.658Z,924.39
2018-03-19T00:07:31.670Z,924.39
2018-03-19T00:07:44.633Z,924.37
2018-03-19T00:07:57.654Z,924.37
2018-03-19T00:08:10.194Z,924.35
2018-03-19T00:08:23.131Z,924.42
2018-03-19T00:08:36.038Z,924.39
2018-03-19T00:08:49.070Z,924.36
2018-03-19T00:09:02.021Z,924.38
2018-03-19T00:09:14.549Z,924.39
2018-03-19T00:09:27.058Z,924.41
2018-03-19T00:09:40.066Z,924.41
2018-03-19T00:09:53.101Z,924.38
2018-03-19T00:10:05.679Z,924.43
2018-03-19T00:10:18.689Z,924.4
2018-03-19T00:10:31.743Z,924.41
2018-03-19T00:10:44.839Z,924.41
2018-03-19T00:10:57.374Z,924.4
2018-03-19T00:11:09.442Z,924.41
2018-03-19T00:11:21.966Z,924.42
2018-03-19T00:11:34.068Z,924.41
2018-03-19T00:11:47.092Z,924.44
2018-03-19T00:12:00.021Z,924.46
2018-03-19T00:12:12.591Z,924.45
2018-03-19T00:12:25.766Z,924.43
2018-03-19T00:12:38.891Z,924.43
2018-03-19T00:12:51.941Z,924.46
2018-03-19T00:13:04.523Z,924.44
2018-03-19T00:13:17.120Z,924.43
2018-03-19T00:13:29.716Z,924.43
2018-03-19T00:13:42.741Z,924.44
2018-03-19T00:13:55.348Z,924.42
2018-03-19T00:14:08.350Z,924.43
2018-03-19T00:14:21.413Z,924.45
2018-03-19T00:14:34.543Z,924.45
2018-03-19T00:14:47.074Z,924.48
2018-03-19T00:15:00.119Z,924.42
2018-03-19T00:15:13.141Z,924.48
2018-03-19T00:15:26.181Z,924.45
2018-03-19T00:15:38.761Z,924.45
2018-03-19T00:15:55.383Z,924.43
2018-03-19T00:16:07.896Z,924.46
2018-03-19T00:16:20.376Z,924.47
2018-03-19T00:16:32.926Z,924.42
2018-03-19T00:16:46.005Z,924.48
2018-03-19T00:16:59.162Z,924.4
2018-03-19T00:17:11.241Z,924.45
2018-03-19T00:17:24.220Z,924.49
2018-03-19T00:17:37.178Z,924.48
2018-03-19T00:17:50.148Z,924.47
2018-03-19T00:18:03.188Z,924.46
2018-03-19T00:18:15.762Z,924.45
2018-03-19T00:18:28.759Z,924.5
2018-03-19T00:18:41.788Z,924.49
2018-03-19T00:18:54.758Z,924.45
2018-03-19T00:19:07.277Z,924.48
2018-03-19T00:19:19.812Z,924.46
2018-03-19T00:19:31.862Z,924.48
2018-03-19T00:19:44.884Z,924.47
2018-03-19T00:19:57.441Z,924.47
2018-03-19T00:20:10.465Z,924.47
2018-03-19T00:20:23.461Z,924.47
2018-03-19T00:20:36.500Z,924.46
2018-03-19T00:20:49.520Z,924.49
2018-03-19T00:21:02.599Z,924.49
2018-03-19T00:21:14.795Z,924.46
2018-03-19T00:21:27.868Z,924.49
2018-03-19T00:21:40.949Z,924.49
2018-03-19T00:21:53.973Z,924.47
2018-03-19T00:22:07.072Z,924.48
2018-03-19T00:22:20.054Z,924.48
2018-03-19T00:22:33.016Z,924.45
2018-03-19T00:22:46.054Z,924.48
2018-03-19T00:22:58.160Z,924.45
2018-03-19T00:23:10.214Z,924.46
2018-03-19T00:23:23.195Z,924.42
2018-03-19T00:23:35.726Z,924.44
2018-03-19T00:23:48.656Z,924.47
2018-03-19T00:24:00.715Z,924.48
2018-03-19T00:24:13.865Z,924.48
2018-03-19T00:24:26.403Z,924.46
2018-03-19T00:24:39.415Z,924.48
2018-03-19T00:24:52.463Z,924.49
2018-03-19T00:25:05.506Z,924.49
2018-03-19T00:25:17.565Z,924.48
2018-03-19T00:25:30.564Z,924.48
2018-03-19T00:25:43.654Z,924.5
2018-03-19T00:25:56.685Z,924.49
2018-03-19T00:26:09.320Z,924.49
2018-03-19T00:26:22.385Z,924.51
2018-03-19T00:26:34.951Z,924.48
2018-03-19T00:26:47.560Z,924.5
2018-03-19T00:27:00.577Z,924.52
2018-03-19T00:27:13.157Z,924.5
2018-03-19T00:27:25.718Z,924.54
2018-03-19T00:27:38.738Z,924.54
2018-03-19T00:27:51.352Z,924.51
2018-03-19T00:28:03.967Z,924.51
2018-03-19T00:28:17.064Z,924.5
2018-03-19T00:28:30.114Z,924.52
2018-03-19T00:28:43.162Z,924.5
2018-03-19T00:28:56.192Z,924.53
2018-03-19T00:29:09.214Z,924.53
2018-03-19T00:29:21.750Z,924.53
2018-03-19T00:29:34.380Z,924.54
2018-03-19T00:29:46.520Z,924.52
2018-03-19T00:29:59.530Z,924.52
2018-03-19T00:30:12.163Z,924.54
2018-03-19T00:30:25.237Z,924.54
2018-03-19T00:30:37.888Z,924.51
2018-03-19T00:30:50.435Z,924.57
2018-03-19T00:31:04.728Z,924.55
2018-03-19T00:31:17.740Z,924.56
2018-03-19T00:31:30.752Z,924.54
2018-03-19T00:31:43.824Z,924.56
2018-03-19T00:31:56.838Z,924.56
2018-03-19T00:32:09.843Z,924.55
2018-03-19T00:32:22.873Z,924.5
2018-03-19T00:32:35.907Z,924.54
2018-03-19T00:32:48.930Z,924.55
2018-03-19T00:33:01.487Z,924.56
2018-03-19T00:33:14.549Z,924.53
2018-03-19T00:33:27.129Z,924.49
2018-03-19T00:33:40.119Z,924.47
2018-03-19T00:33:53.168Z,924.49
2018-03-19T00:34:06.340Z,924.5
2018-03-19T00:34:19.401Z,924.5
2018-03-19T00:34:31.532Z,924.53
2018-03-19T00:34:43.585Z,924.56
2018-03-19T00:34:56.601Z,924.58
2018-03-19T00:35:09.167Z,924.53
2018-03-19T00:35:21.772Z,924.55
2018-03-19T00:35:34.772Z,924.55
2018-03-19T00:35:47.849Z,924.53
2018-03-19T00:36:00.393Z,924.5
2018-03-19T00:36:13.480Z,924.54
2018-03-19T00:36:26.545Z,924.52
2018-03-19T00:36:39.607Z,924.54
2018-03-19T00:36:52.195Z,924.52
2018-03-19T00:37:05.273Z,924.57
2018-03-19T00:37:18.346Z,924.54
2018-03-19T00:37:31.464Z,924.56
2018-03-19T00:37:44.030Z,924.56
2018-03-19T00:37:57.099Z,924.55
2018-03-19T00:38:10.136Z,924.6
2018-03-19T00:38:23.134Z,924.57
2018-03-19T00:38:36.194Z,924.62
2018-03-19T00:38:49.285Z,924.59
2018-03-19T00:39:02.326Z,924.6
2018-03-19T00:39:15.477Z,924.56
2018-03-19T00:39:28.052Z,924.6
2018-03-19T00:39:41.097Z,924.58
2018-03-19T00:39:54.192Z,924.61
2018-03-19T00:40:05.897Z,924.6
2018-03-19T00:40:18.464Z,924.58
2018-03-19T00:40:31.575Z,924.6
2018-03-19T00:40:44.629Z,924.58
2018-03-19T00:40:57.786Z,924.56
2018-03-19T00:41:10.359Z,924.6
2018-03-19T00:41:22.958Z,924.61
2018-03-19T00:41:36.123Z,924.63
2018-03-19T00:41:49.167Z,924.61
2018-03-19T00:42:01.787Z,924.6
2018-03-19T00:42:14.430Z,924.6
2018-03-19T00:42:27.588Z,924.64
2018-03-19T00:42:40.686Z,924.59
2018-03-19T00:42:53.330Z,924.63
2018-03-19T00:43:06.383Z,924.62
2018-03-19T00:43:19.044Z,924.59
2018-03-19T00:43:31.698Z,924.59
2018-03-19T00:43:44.803Z,924.6
2018-03-19T00:43:57.830Z,924.61
2018-03-19T00:44:09.443Z,924.6
2018-03-19T00:44:22.511Z,924.62
2018-03-19T00:44:35.526Z,924.61
2018-03-19T00:44:48.633Z,924.64
2018-03-19T00:45:01.708Z,924.64
2018-03-19T00:45:14.290Z,924.63
2018-03-19T00:45:26.867Z,924.64
2018-03-19T00:45:39.908Z,924.63
2018-03-19T00:45:52.503Z,924.68
2018-03-19T00:46:07.208Z,924.63
2018-03-19T00:46:19.828Z,924.62
2018-03-19T00:46:32.938Z,924.65
2018-03-19T00:46:45.550Z,924.67
2018-03-19T00:46:58.665Z,924.67
2018-03-19T00:47:11.344Z,924.68
2018-03-19T00:47:23.912Z,924.67
2018-03-19T00:47:36.890Z,924.66
2018-03-19T00:47:49.958Z,924.65
2018-03-19T00:48:02.531Z,924.68
2018-03-19T00:48:14.646Z,924.67
2018-03-19T00:48:27.150Z,924.67
2018-03-19T00:48:40.355Z,924.7
2018-03-19T00:48:52.935Z,924.71
2018-03-19T00:49:05.943Z,924.68
2018-03-19T00:49:19.059Z,924.72
2018-03-19T00:49:31.607Z,924.68
2018-03-19T00:49:44.179Z,924.7
2018-03-19T00:49:57.274Z,924.71
2018-03-19T00:50:10.319Z,924.72
2018-03-19T00:50:23.322Z,924.71
2018-03-19T00:50:36.430Z,924.74
2018-03-19T00:50:49.564Z,924.73
2018-03-19T00:51:02.660Z,924.73
2018-03-19T00:51:15.218Z,924.76
2018-03-19T00:51:28.408Z,924.72
2018-03-19T00:51:40.980Z,924.75
2018-03-19T00:51:54.007Z,924.76
2018-03-19T00:52:06.609Z,924.76
2018-03-19T00:52:19.606Z,924.8
2018-03-19T00:52:32.682Z,924.77
2018-03-19T00:52:45.846Z,924.8
2018-03-19T00:52:58.909Z,924.77
2018-03-19T00:53:11.034Z,924.82
2018-03-19T00:53:23.660Z,924.76
2018-03-19T00:53:36.739Z,924.74
2018-03-19T00:53:49.280Z,924.75
2018-03-19T00:54:02.380Z,924.74
2018-03-19T00:54:14.917Z,924.76
2018-03-19T00:54:27.943Z,924.77
2018-03-19T00:54:41.041Z,924.73
2018-03-19T00:54:54.122Z,924.77
2018-03-19T00:55:06.236Z,924.76
2018-03-19T00:55:18.807Z,924.78
2018-03-19T00:55:31.479Z,924.81
2018-03-19T00:55:44.578Z,924.83
2018-03-19T00:55:57.704Z,924.81
2018-03-19T00:56:10.988Z,924.82
2018-03-19T00:56:24.060Z,924.83
2018-03-19T00:56:37.121Z,924.79
2018-03-19T00:56:50.286Z,924.82
2018-03-19T00:57:02.884Z,924.79
2018-03-19T00:57:15.568Z,924.81
2018-03-19T00:57:28.621Z,924.8
2018-03-19T00:57:41.741Z,924.8
2018-03-19T00:57:54.879Z,924.77
2018-03-19T00:58:07.945Z,924.8
2018-03-19T00:58:21.029Z,924.81
2018-03-19T00:58:34.187Z,924.82
2018-03-19T00:58:46.754Z,924.81
2018-03-19T00:58:59.882Z,924.81
2018-03-19T00:59:12.433Z,924.8
2018-03-19T00:59:25.449Z,924.76
2018-03-19T00:59:38.568Z,924.81
2018-03-19T00:59:51.144Z,924.81
2018-03-19T01:00:03.703Z,924.8
2018-03-19T01:00:16.794Z,924.77
2018-03-19T01:00:29.850Z,924.79
2018-03-19T01:00:42.861Z,924.79
2018-03-19T01:00:55.874Z,924.79
2018-03-19T01:01:11.320Z,924.81
2018-03-19T01:01:23.792Z,924.82
2018-03-19T01:01:36.261Z,924.8
2018-03-19T01:01:49.270Z,924.79
2018-03-19T01:02:02.281Z,924.79
2018-03-19T01:02:14.789Z,924.79
2018-03-19T01:02:27.355Z,924.76
2018-03-19T01:02:40.372Z,924.75
2018-03-19T01:02:53.351Z,924.8
2018-03-19T01:03:05.939Z,924.73
2018-03-19T01:03:18.908Z,924.75
2018-03-19T01:03:31.950Z,924.76
2018-03-19T01:03:44.482Z,924.76
2018-03-19T01:03:57.031Z,924.78
2018-03-19T01:04:10.095Z,924.77
2018-03-19T01:04:22.753Z,924.76
2018-03-19T01:04:35.825Z,924.76
2018-03-19T01:04:48.833Z,924.74
2018-03-19T01:05:01.332Z,924.75
2018-03-19T01:05:14.299Z,924.76
2018-03-19T01:05:27.350Z,924.74
2018-03-19T01:05:40.305Z,924.73
2018-03-19T01:05:52.850Z,924.74
2018-03-19T01:06:04.926Z,924.74
2018-03-19T01:06:17.455Z,924.72
2018-03-19T01:06:30.452Z,924.7
2018-03-19T01:06:43.414Z,924.72
2018-03-19T01:06:56.390Z,924.73
2018-03-19T01:07:08.934Z,924.71
2018-03-19T01:07:21.972Z,924.71
2018-03-19T01:07:34.530Z,924.66
2018-03-19T01:07:47.121Z,924.74
2018-03-19T01:08:00.203Z,924.74
2018-03-19T01:08:13.297Z,924.7
2018-03-19T01:08:26.381Z,924.74
2018-03-19T01:08:39.420Z,924.72
2018-03-19T01:08:52.443Z,924.73
2018-03-19T01:09:05.433Z,924.73
2018-03-19T01:09:17.983Z,924.78
2018-03-19T01:09:30.495Z,924.71
2018-03-19T01:09:43.031Z,924.76
2018-03-19T01:09:56.033Z,924.78
2018-03-19T01:10:09.036Z,924.77
2018-03-19T01:10:22.129Z,924.78
2018-03-19T01:10:34.669Z,924.77
2018-03-19T01:10:47.645Z,924.78
2018-03-19T01:11:00.597Z,924.75
2018-03-19T01:11:12.667Z,924.77
2018-03-19T01:11:25.649Z,924.76
2018-03-19T01:11:38.619Z,924.75
2018-03-19T01:11:51.648Z,924.8
2018-03-19T01:12:04.186Z,924.8
2018-03-19T01:12:17.246Z,924.79
2018-03-19T01:12:30.342Z,924.8
2018-03-19T01:12:43.333Z,924.78
2018-03-19T01:12:55.369Z,924.79
2018-03-19T01:13:08.343Z,924.79
2018-03-19T01:13:21.313Z,924.81
2018-03-19T01:13:34.299Z,924.78
2018-03-19T01:13:47.264Z,924.77
2018-03-19T01:14:00.257Z,924.77
2018-03-19T01:14:13.291Z,924.77
2018-03-19T01:14:26.359Z,924.8
2018-03-19T01:14:39.279Z,924.78
2018-03-19T01:14:52.194Z,924.8
2018-03-19T01:15:05.146Z,924.79
2018-03-19T01:15:18.144Z,924.78
2018-03-19T01:15:31.085Z,924.78
2018-03-19T01:15:44.077Z,924.81
2018-03-19T01:15:57.079Z,924.78
2018-03-19T01:16:10.103Z,924.79
2018-03-19T01:16:24.747Z,924.8
2018-03-19T01:16:37.749Z,924.8
2018-03-19T01:16:50.813Z,924.81
2018-03-19T01:17:03.856Z,924.81
2018-03-19T01:17:16.365Z,924.8
2018-03-19T01:17:29.388Z,924.84
2018-03-19T01:17:41.944Z,924.8
2018-03-19T01:17:54.935Z,924.8
2018-03-19T01:18:07.913Z,924.82
2018-03-19T01:18:20.564Z,924.8
2018-03-19T01:18:33.550Z,924.8
2018-03-19T01:18:46.074Z,924.81
2018-03-19T01:18:59.089Z,924.8
2018-03-19T01:19:11.695Z,924.82
2018-03-19T01:19:24.752Z,924.86
2018-03-19T01:19:37.721Z,924.83
2018-03-19T01:19:50.758Z,924.81
2018-03-19T01:20:02.820Z,924.86
2018-03-19T01:20:14.953Z,924.84
2018-03-19T01:20:27.551Z,924.81
2018-03-19T01:20:40.609Z,924.83
2018-03-19T01:20:52.696Z,924.84
2018-03-19T01:21:05.219Z,924.84
2018-03-19T01:21:18.253Z,924.81
2018-03-19T01:21:30.850Z,924.84
2018-03-19T01:21:43.925Z,924.83
2018-03-19T01:21:56.581Z,924.85
2018-03-19T01:22:09.188Z,924.81
2018-03-19T01:22:22.212Z,924.8
2018-03-19T01:22:35.214Z,924.84
2018-03-19T01:22:47.893Z,924.8
2018-03-19T01:23:00.957Z,924.85
2018-03-19T01:23:13.651Z,924.86
2018-03-19T01:23:26.768Z,924.81
2018-03-19T01:23:39.784Z,924.82
2018-03-19T01:23:52.876Z,924.82
2018-03-19T01:24:05.879Z,924.79
2018-03-19T01:24:18.910Z,924.8
2018-03-19T01:24:30.632Z,924.79
2018-03-19T01:24:43.715Z,924.83
2018-03-19T01:24:56.796Z,924.8
2018-03-19T01:25:09.860Z,924.8
2018-03-19T01:25:22.461Z,924.82
2018-03-19T01:25:35.551Z,924.83
2018-03-19T01:25:48.175Z,924.82
2018-03-19T01:26:01.307Z,924.84
2018-03-19T01:26:13.385Z,924.85
2018-03-19T01:26:26.453Z,924.83
2018-03-19T01:26:39.119Z,924.84
2018-03-19T01:26:52.136Z,924.85
2018-03-19T01:27:05.090Z,924.86
2018-03-19T01:27:17.288Z,924.85
2018-03-19T01:27:30.431Z,924.83
2018-03-19T01:27:43.501Z,924.83
2018-03-19T01:27:56.567Z,924.88
2018-03-19T01:28:08.772Z,924.87
2018-03-19T01:28:21.822Z,924.86
2018-03-19T01:28:34.814Z,924.9
2018-03-19T01:28:47.891Z,924.87
2018-03-19T01:29:00.519Z,924.88
2018-03-19T01:29:13.060Z,924.88
2018-03-19T01:29:26.036Z,924.88
2018-03-19T01:29:38.550Z,924.87
2018-03-19T01:29:51.612Z,924.92
2018-03-19T01:30:04.672Z,924.91
2018-03-19T01:30:16.354Z,924.92
2018-03-19T01:30:28.927Z,924.92
2018-03-19T01:30:41.625Z,924.87
2018-03-19T01:30:54.725Z,924.91
2018-03-19T01:31:06.864Z,924.9
2018-03-19T01:31:20.146Z,924.89
2018-03-19T01:31:33.152Z,924.91
2018-03-19T01:31:45.824Z,924.88
2018-03-19T01:31:58.911Z,924.88
2018-03-19T01:32:12.036Z,924.88
2018-03-19T01:32:25.140Z,924.89
2018-03-19T01:32:37.682Z,924.89
2018-03-19T01:32:50.726Z,924.9
2018-03-19T01:33:03.806Z,924.91
2018-03-19T01:33:16.922Z,924.88
2018-03-19T01:33:29.515Z,924.89
2018-03-19T01:33:42.635Z,924.96
2018-03-19T01:33:55.744Z,924.91
2018-03-19T01:34:07.860Z,924.91
2018-03-19T01:34:20.946Z,924.93
2018-03-19T01:34:33.751Z,924.91
2018-03-19T01:34:46.339Z,924.9
2018-03-19T01:34:58.993Z,924.91
2018-03-19T01:35:12.200Z,924.88
2018-03-19T01:35:25.169Z,924.89
2018-03-19T01:35:38.170Z,924.91
2018-03-19T01:35:51.283Z,924.92
2018-03-19T01:36:04.473Z,924.94
2018-03-19T01:36:17.407Z,924.92
2018-03-19T01:36:30.565Z,924.94
2018-03-19T01:36:43.142Z,924.91
2018-03-19T01:36:56.216Z,924.92
2018-03-19T01:37:08.809Z,924.94
2018-03-19T01:37:21.520Z,924.92
2018-03-19T01:37:34.909Z,924.91
2018-03-19T01:37:47.521Z,924.89
2018-03-19T01:38:00.627Z,924.96
2018-03-19T01:38:13.682Z,924.95
2018-03-19T01:38:26.299Z,924.91
2018-03-19T01:38:39.383Z,924.92
2018-03-19T01:38:52.515Z,924.93
2018-03-19T01:39:05.513Z,924.92
2018-03-19T01:39:18.101Z,924.9
2018-03-19T01:39:31.118Z,924.92
2018-03-19T01:39:44.148Z,924.89
2018-03-19T01:39:56.819Z,924.92
2018-03-19T01:40:09.371Z,924.9
2018-03-19T01:40:21.998Z,924.89
2018-03-19T01:40:34.513Z,924.92
2018-03-19T01:40:47.601Z,924.9
2018-03-19T01:41:00.187Z,924.92
2018-03-19T01:41:13.216Z,924.93
2018-03-19T01:41:25.861Z,924.91
2018-03-19T01:41:38.984Z,924.94
2018-03-19T01:41:52.016Z,924.9
2018-03-19T01:42:05.102Z,924.91
2018-03-19T01:42:17.735Z,924.93
2018-03-19T01:42:30.786Z,924.88
2018-03-19T01:42:43.811Z,924.9
2018-03-19T01:42:56.810Z,924.92
2018-03-19T01:43:09.365Z,924.93
2018-03-19T01:43:22.579Z,924.93
2018-03-19T01:43:35.650Z,924.91
2018-03-19T01:43:48.694Z,924.89
2018-03-19T01:44:00.859Z,924.88
2018-03-19T01:44:13.541Z,924.88
2018-03-19T01:44:25.689Z,924.87
2018-03-19T01:44:38.323Z,924.86
2018-03-19T01:44:51.558Z,924.88
2018-03-19T01:45:04.238Z,924.87
2018-03-19T01:45:17.359Z,924.88
2018-03-19T01:45:29.964Z,924.85
2018-03-19T01:45:42.484Z,924.87
2018-03-19T01:45:55.476Z,924.86
2018-03-19T01:46:08.607Z,924.86
2018-03-19T01:46:21.752Z,924.88
2018-03-19T01:46:35.832Z,924.88
2018-03-19T01:46:48.491Z,924.9
2018-03-19T01:47:00.621Z,924.88
2018-03-19T01:47:13.692Z,924.89
2018-03-19T01:47:26.273Z,924.89
2018-03-19T01:47:38.934Z,924.88
2018-03-19T01:47:51.940Z,924.9
2018-03-19T01:48:04.965Z,924.88
2018-03-19T01:48:17.517Z,924.85
2018-03-19T01:48:30.609Z,924.85
2018-03-19T01:48:42.706Z,924.86
2018-03-19T01:48:54.904Z,924.85
2018-03-19T01:49:07.598Z,924.89
2018-03-19T01:49:20.673Z,924.86
2018-03-19T01:49:33.669Z,924.86
2018-03-19T01:49:46.190Z,924.86
2018-03-19T01:49:58.763Z,924.83
2018-03-19T01:50:11.421Z,924.87
2018-03-19T01:50:24.094Z,924.86
2018-03-19T01:50:37.142Z,924.87
2018-03-19T01:50:49.245Z,924.87
2018-03-19T01:51:02.396Z,924.87
2018-03-19T01:51:16.628Z,924.85
2018-03-19T01:51:29.861Z,924.85
2018-03-19T01:51:42.898Z,924.85
2018-03-19T01:51:55.984Z,924.87
2018-03-19T01:52:08.514Z,924.88
2018-03-19T01:52:21.624Z,924.91
2018-03-19T01:52:34.660Z,924.89
2018-03-19T01:52:47.227Z,924.85
2018-03-19T01:53:00.238Z,924.91
2018-03-19T01:53:13.224Z,924.87
2018-03-19T01:53:26.288Z,924.87
2018-03-19T01:53:39.307Z,924.86
2018-03-19T01:53:52.391Z,924.89
2018-03-19T01:54:04.538Z,924.89
2018-03-19T01:54:17.675Z,924.9
2018-03-19T01:54:30.803Z,924.86
2018-03-19T01:54:43.466Z,924.86
2018-03-19T01:54:56.591Z,924.9
2018-03-19T01:55:09.194Z,924.92
2018-03-19T01:55:22.296Z,924.91
2018-03-19T01:55:35.401Z,924.91
2018-03-19T01:55:47.511Z,924.89
2018-03-19T01:56:00.652Z,924.92
2018-03-19T01:56:13.221Z,924.93
2018-03-19T01:56:26.301Z,924.9
2018-03-19T01:56:39.409Z,924.96
2018-03-19T01:56:52.487Z,924.92
2018-03-19T01:57:05.117Z,924.96
2018-03-19T01:57:18.185Z,924.93
2018-03-19T01:57:31.275Z,924.95
2018-03-19T01:57:43.429Z,924.95
2018-03-19T01:57:56.461Z,924.93
2018-03-19T01:58:08.617Z,924.95
2018-03-19T01:58:21.629Z,924.92
2018-03-19T01:58:34.769Z,924.94
2018-03-19T01:58:47.871Z,924.93
2018-03-19T01:59:00.859Z,924.94
2018-03-19T01:59:13.929Z,924.91
2018-03-19T01:59:27.086Z,924.94
2018-03-19T01:59:39.681Z,924.94
2018-03-19T01:59:52.704Z,924.95
2018-03-19T02:00:05.731Z,924.95
2018-03-19T02:00:17.838Z,924.98
2018-03-19T02:00:30.886Z,924.95
2018-03-19T02:00:43.960Z,924.94
2018-03-19T02:00:56.601Z,924.93
2018-03-19T02:01:09.653Z,924.9
2018-03-19T02:01:22.229Z,924.97
2018-03-19T02:01:36.152Z,924.93
2018-03-19T02:01:49.217Z,924.95
2018-03-19T02:02:02.234Z,924.92
2018-03-19T02:02:14.805Z,924.95
2018-03-19T02:02:27.851Z,924.98
2018-03-19T02:02:40.913Z,925
2018-03-19T02:02:53.952Z,924.99
2018-03-19T02:03:07.037Z,924.97
2018-03-19T02:03:19.642Z,924.96
2018-03-19T02:03:32.266Z,924.98
2018-03-19T02:03:44.908Z,924.99
2018-03-19T02:03:57.971Z,924.95
2018-03-19T02:04:10.583Z,924.94
2018-03-19T02:04:23.692Z,924.92
2018-03-19T02:04:36.335Z,924.93
2018-03-19T02:04:47.979Z,924.91
2018-03-19T02:05:01.029Z,924.88
2018-03-19T02:05:13.684Z,924.91
2018-03-19T02:05:28.426Z,924.85
2018-03-19T02:05:41.452Z,924.89
2018-03-19T02:05:54.546Z,924.9
2018-03-19T02:06:07.608Z,924.82
2018-03-19T02:06:20.855Z,924.83
2018-03-19T02:06:33.862Z,924.84
2018-03-19T02:06:46.486Z,924.86
2018-03-19T02:06:59.059Z,924.83
2018-03-19T02:07:11.812Z,924.8
2018-03-19T02:07:24.855Z,924.84
2018-03-19T02:07:37.503Z,924.84
2018-03-19T02:07:50.503Z,924.81
2018-03-19T02:08:03.092Z,924.82
2018-03-19T02:08:16.177Z,924.81
2018-03-19T02:08:29.222Z,924.81
2018-03-19T02:08:42.349Z,924.88
2018-03-19T02:08:55.459Z,924.82
2018-03-19T02:09:08.547Z,924.82
2018-03-19T02:09:21.563Z,924.84
2018-03-19T02:09:34.642Z,924.82
2018-03-19T02:09:47.652Z,924.86
2018-03-19T02:10:00.679Z,924.85
2018-03-19T02:10:13.353Z,924.84
2018-03-19T02:10:25.954Z,924.87
2018-03-19T02:10:38.545Z,924.84
2018-03-19T02:10:51.594Z,924.84
2018-03-19T02:11:04.227Z,924.84
2018-03-19T02:11:16.722Z,924.82
2018-03-19T02:11:29.775Z,924.87
2018-03-19T02:11:42.906Z,924.82
2018-03-19T02:11:55.590Z,924.86
2018-03-19T02:12:08.648Z,924.86
2018-03-19T02:12:21.284Z,924.83
2018-03-19T02:12:34.321Z,924.86
2018-03-19T02:12:46.864Z,924.82
2018-03-19T02:12:59.951Z,924.84
2018-03-19T02:13:12.537Z,924.87
2018-03-19T02:13:25.636Z,924.86
2018-03-19T02:13:38.670Z,924.87
2018-03-19T02:13:51.728Z,924.84
2018-03-19T02:14:04.491Z,924.83
2018-03-19T02:14:17.085Z,924.86
2018-03-19T02:14:30.090Z,924.87
2018-03-19T02:14:42.302Z,924.81
2018-03-19T02:14:54.825Z,924.83
2018-03-19T02:15:07.463Z,924.82
2018-03-19T02:15:20.024Z,924.85
2018-03-19T02:15:33.190Z,924.83
2018-03-19T02:15:45.261Z,924.8
2018-03-19T02:15:57.891Z,924.84
2018-03-19T02:16:10.670Z,924.83
2018-03-19T02:16:22.850Z,924.8
2018-03-19T02:16:35.973Z,924.81
2018-03-19T02:16:50.057Z,924.83
2018-03-19T02:17:02.617Z,924.85
2018-03-19T02:17:15.187Z,924.83
2018-03-19T02:17:28.265Z,924.78
2018-03-19T02:17:41.244Z,924.82
2018-03-19T02:17:54.314Z,924.8
2018-03-19T02:18:06.942Z,924.85
2018-03-19T02:18:19.594Z,924.86
2018-03-19T02:18:32.605Z,924.86
2018-03-19T02:18:45.625Z,924.82
2018-03-19T02:18:58.825Z,924.83
2018-03-19T02:19:10.934Z,924.8
2018-03-19T02:19:24.065Z,924.84
2018-03-19T02:19:37.244Z,924.85
2018-03-19T02:19:50.299Z,924.81
2018-03-19T02:20:02.951Z,924.83
2018-03-19T02:20:16.109Z,924.84
2018-03-19T02:20:28.697Z,924.84
2018-03-19T02:20:41.732Z,924.83
2018-03-19T02:20:54.388Z,924.84
2018-03-19T02:21:06.510Z,924.83
2018-03-19T02:21:19.555Z,924.86
2018-03-19T02:21:32.200Z,924.87
2018-03-19T02:21:44.785Z,924.87
2018-03-19T02:21:57.360Z,924.86
2018-03-19T02:22:09.475Z,924.86
2018-03-19T02:22:22.581Z,924.91
2018-03-19T02:22:35.633Z,924.89
2018-03-19T02:22:48.784Z,924.87
2018-03-19T02:23:01.324Z,924.89
2018-03-19T02:23:13.952Z,924.93
2018-03-19T02:23:27.051Z,924.89
2018-03-19T02:23:40.152Z,924.88
2018-03-19T02:23:53.234Z,924.87
2018-03-19T02:24:06.441Z,924.87
2018-03-19T02:24:19.064Z,924.89
2018-03-19T02:24:31.728Z,924.86
2018-03-19T02:24:44.757Z,924.92
2018-03-19T02:24:57.767Z,924.92
2018-03-19T02:25:10.907Z,924.87
2018-03-19T02:25:23.522Z,924.88
2018-03-19T02:25:36.627Z,924.89
2018-03-19T02:25:49.215Z,924.9
2018-03-19T02:26:02.261Z,924.89
2018-03-19T02:26:15.348Z,924.85
2018-03-19T02:26:28.422Z,924.9
2018-03-19T02:26:41.466Z,924.93
2018-03-19T02:26:54.609Z,924.89
2018-03-19T02:27:07.173Z,924.93
2018-03-19T02:27:20.299Z,924.91
2018-03-19T02:27:33.206Z,924.89
2018-03-19T02:27:46.251Z,924.91
2018-03-19T02:27:59.319Z,924.91
2018-03-19T02:28:11.907Z,924.89
2018-03-19T02:28:25.296Z,924.9
2018-03-19T02:28:38.342Z,924.9
2018-03-19T02:28:51.362Z,924.93
2018-03-19T02:29:04.403Z,924.89
2018-03-19T02:29:16.935Z,924.9
2018-03-19T02:29:29.901Z,924.93
2018-03-19T02:29:42.518Z,924.89
2018-03-19T02:29:55.680Z,924.9
2018-03-19T02:30:08.289Z,924.9
2018-03-19T02:30:20.878Z,924.88
2018-03-19T02:30:33.518Z,924.91
2018-03-19T02:30:46.634Z,924.89
2018-03-19T02:30:59.725Z,924.91
2018-03-19T02:31:11.884Z,924.91
2018-03-19T02:31:25.084Z,924.9
2018-03-19T02:31:38.065Z,924.91
2018-03-19T02:31:51.736Z,924.91
2018-03-19T02:32:04.754Z,924.93
2018-03-19T02:32:17.805Z,924.91
2018-03-19T02:32:30.886Z,924.95
2018-03-19T02:32:44.007Z,924.92
2018-03-19T02:32:57.122Z,924.91
2018-03-19T02:33:09.733Z,924.95
2018-03-19T02:33:22.455Z,924.93
2018-03-19T02:33:35.560Z,924.92
2018-03-19T02:33:47.696Z,924.92
2018-03-19T02:34:00.808Z,924.93
2018-03-19T02:34:13.392Z,924.94
2018-03-19T02:34:26.541Z,924.91
2018-03-19T02:34:39.604Z,924.92
2018-03-19T02:34:52.230Z,924.9
2018-03-19T02:35:05.405Z,924.92
2018-03-19T02:35:18.566Z,924.92
2018-03-19T02:35:31.701Z,924.91
2018-03-19T02:35:44.790Z,924.91
2018-03-19T02:35:57.977Z,924.92
2018-03-19T02:36:11.021Z,924.9
2018-03-19T02:36:24.080Z,924.93
2018-03-19T02:36:37.132Z,924.93
2018-03-19T02:36:50.178Z,924.94
2018-03-19T02:37:03.318Z,924.93
2018-03-19T02:37:16.413Z,924.89
2018-03-19T02:37:29.086Z,924.91
2018-03-19T02:37:41.709Z,924.89
2018-03-19T02:37:54.822Z,924.91
2018-03-19T02:38:07.948Z,924.89
2018-03-19T02:38:20.544Z,924.91
2018-03-19T02:38:33.600Z,924.87
2018-03-19T02:38:46.679Z,924.86
2018-03-19T02:38:59.250Z,924.91
2018-03-19T02:39:12.291Z,924.9
2018-03-19T02:39:24.915Z,924.89
2018-03-19T02:39:38.107Z,924.86
2018-03-19T02:39:51.302Z,924.87
2018-03-19T02:40:03.854Z,924.87
2018-03-19T02:40:16.572Z,924.84
2018-03-19T02:40:29.568Z,924.86
2018-03-19T02:40:42.660Z,924.87
2018-03-19T02:40:55.342Z,924.86
2018-03-19T02:41:08.476Z,924.85